createdAt,value
2019-03-03T00:00:40.475Z,98.80
2019-03-03T00:04:44.088Z,98.90
2019-03-03T00:08:47.677Z,98.90
2019-03-03T00:12:51.285Z,99.00
2019-03-03T00:16:54.867Z,99.10
2019-03-03T00:20:58.489Z,99.10
2019-03-03T00:25:02.112Z,99.30
2019-03-03T00:29:05.708Z,99.30
2019-03-03T00:33:09.297Z,99.20
2019-03-03T00:37:23.497Z,99.10
2019-03-03T00:41:43.809Z,99.30
2019-03-03T00:45:49.051Z,99.70
2019-03-03T00:49:56.763Z,99.90
2019-03-03T00:54:18.404Z,99.90
2019-03-03T00:58:29.383Z,99.90
2019-03-03T01:02:37.623Z,99.90
2019-03-03T01:06:59.464Z,99.90
2019-03-03T01:11:07.678Z,99.90
2019-03-03T01:15:25.093Z,99.90
2019-03-03T01:19:30.324Z,99.90
2019-03-03T01:23:35.556Z,99.80
2019-03-03T01:27:39.160Z,99.90
2019-03-03T01:31:42.763Z,99.60
2019-03-03T01:35:46.527Z,99.50
2019-03-03T01:39:50.104Z,99.60
2019-03-03T01:43:53.683Z,99.60
2019-03-03T01:47:57.286Z,99.50
2019-03-03T01:52:00.890Z,99.40
2019-03-03T01:56:05.121Z,99.10
2019-03-03T02:00:28.552Z,99.20
2019-03-03T02:04:32.140Z,99.00
2019-03-03T02:08:35.752Z,99.00
2019-03-03T02:12:39.455Z,99.00
2019-03-03T02:16:43.054Z,98.80
2019-03-03T02:20:46.632Z,98.90
2019-03-03T02:24:50.223Z,98.90
2019-03-03T02:28:53.837Z,98.70
2019-03-03T02:32:57.445Z,98.40
2019-03-03T02:37:01.284Z,98.40
2019-03-03T02:41:05.206Z,98.10
2019-03-03T02:45:11.631Z,97.80
2019-03-03T02:49:15.237Z,97.60
2019-03-03T02:53:18.831Z,97.30
2019-03-03T02:57:22.445Z,96.20
2019-03-03T03:01:27.669Z,96.30
2019-03-03T03:05:32.988Z,95.80
2019-03-03T03:09:38.232Z,95.70
2019-03-03T03:13:52.425Z,95.50
2019-03-03T03:18:06.574Z,94.80
2019-03-03T03:22:11.788Z,95.30
2019-03-03T03:26:19.929Z,95.10
2019-03-03T03:30:43.362Z,94.40
2019-03-03T03:34:54.589Z,94.30
2019-03-03T03:39:02.265Z,94.50
2019-03-03T03:43:10.081Z,94.30
2019-03-03T03:47:15.429Z,94.00
2019-03-03T03:51:20.664Z,94.20
2019-03-03T03:55:44.357Z,94.10
2019-03-03T03:59:52.487Z,93.90
2019-03-03T04:04:13.067Z,93.60
2019-03-03T04:08:18.312Z,93.40
2019-03-03T04:12:29.206Z,93.30
2019-03-03T04:16:36.891Z,93.40
2019-03-03T04:20:42.115Z,93.20
2019-03-03T04:25:03.877Z,93.10
2019-03-03T04:29:09.599Z,93.30
2019-03-03T04:33:20.554Z,92.90
2019-03-03T04:37:40.699Z,92.90
2019-03-03T04:41:57.631Z,92.80
2019-03-03T04:46:15.119Z,93.00
2019-03-03T04:50:20.370Z,92.50
2019-03-03T04:54:31.360Z,92.80
2019-03-03T04:58:52.653Z,92.80
2019-03-03T05:03:03.560Z,92.50
2019-03-03T05:07:25.002Z,92.50
2019-03-03T05:12:08.146Z,92.50
2019-03-03T05:16:31.554Z,92.10
2019-03-03T05:20:45.517Z,92.50
2019-03-03T05:24:49.115Z,91.70
2019-03-03T05:28:52.696Z,92.00
2019-03-03T05:32:56.299Z,91.60
2019-03-03T05:36:59.904Z,92.10
2019-03-03T05:41:03.511Z,92.10
2019-03-03T05:45:08.034Z,92.20
2019-03-03T05:49:11.624Z,92.30
2019-03-03T05:53:15.227Z,92.90
2019-03-03T05:57:18.837Z,93.30
2019-03-03T06:01:22.439Z,94.00
2019-03-03T06:05:26.025Z,93.80
2019-03-03T06:09:29.604Z,94.20
2019-03-03T06:13:33.203Z,93.90
2019-03-03T06:17:36.803Z,94.90
2019-03-03T06:21:40.404Z,95.40
2019-03-03T06:25:43.988Z,96.00
2019-03-03T06:29:47.568Z,96.80
2019-03-03T06:33:51.249Z,96.70
2019-03-03T06:37:54.864Z,96.80
2019-03-03T06:41:58.467Z,97.70
2019-03-03T06:46:02.044Z,97.40
2019-03-03T06:50:08.873Z,97.80
2019-03-03T06:54:12.448Z,97.90
2019-03-03T06:58:16.051Z,97.60
2019-03-03T07:02:19.688Z,98.20
2019-03-03T07:06:23.262Z,98.10
2019-03-03T07:10:26.847Z,98.50
2019-03-03T07:14:30.436Z,99.00
2019-03-03T07:18:34.040Z,99.30
2019-03-03T07:22:37.720Z,99.40
2019-03-03T07:26:41.315Z,99.50
2019-03-03T07:30:44.891Z,99.90
2019-03-03T07:34:48.488Z,99.80
2019-03-03T07:38:52.092Z,99.90
2019-03-03T07:42:58.623Z,99.80
2019-03-03T07:47:02.228Z,99.90
2019-03-03T07:51:05.817Z,99.70
2019-03-03T07:55:10.536Z,99.80
2019-03-03T07:59:14.162Z,99.70
2019-03-03T08:03:17.764Z,99.40
2019-03-03T08:07:21.376Z,99.50
2019-03-03T08:11:24.955Z,99.70
2019-03-03T08:15:28.555Z,99.90
2019-03-03T08:19:32.161Z,99.80
2019-03-03T08:23:35.761Z,99.70
2019-03-03T08:27:39.379Z,99.90
2019-03-03T08:31:42.965Z,99.90
2019-03-03T08:35:46.548Z,99.90
2019-03-03T08:39:50.154Z,99.90
2019-03-03T08:43:55.393Z,99.90
2019-03-03T08:48:06.383Z,99.90
2019-03-03T08:52:20.232Z,99.90
2019-03-03T08:56:28.147Z,99.90
2019-03-03T09:00:39.151Z,99.90
2019-03-03T09:04:56.652Z,99.90
2019-03-03T09:09:04.572Z,99.90
2019-03-03T09:13:09.834Z,99.90
2019-03-03T09:17:23.996Z,99.90
2019-03-03T09:21:29.215Z,99.90
2019-03-03T09:25:50.904Z,99.80
2019-03-03T09:30:31.712Z,99.90
2019-03-03T09:34:53.310Z,99.90
2019-03-03T09:39:11.032Z,99.90
2019-03-03T09:43:18.970Z,99.90
2019-03-03T09:47:33.487Z,99.90
2019-03-03T09:51:38.735Z,99.90
2019-03-03T09:55:44.116Z,99.90
2019-03-03T10:00:06.797Z,99.90
2019-03-03T10:04:21.384Z,99.90
2019-03-03T10:08:29.587Z,99.90
2019-03-03T10:12:34.819Z,99.90
2019-03-03T10:16:54.993Z,99.60
2019-03-03T10:21:18.294Z,99.40
2019-03-03T10:25:26.798Z,99.50
2019-03-03T10:29:44.766Z,99.30
2019-03-03T10:33:50.130Z,99.50
2019-03-03T10:38:04.606Z,99.30
2019-03-03T10:42:21.832Z,99.30
2019-03-03T10:46:36.259Z,98.90
2019-03-03T10:50:47.757Z,99.40
2019-03-03T10:54:55.676Z,99.30
2019-03-03T10:59:03.659Z,98.90
2019-03-03T11:07:44.773Z,99.10
2019-03-03T11:11:53.723Z,99.00
2019-03-03T11:16:15.227Z,98.70
2019-03-03T11:20:22.896Z,98.40
2019-03-03T11:29:05.136Z,98.60
2019-03-03T11:33:19.441Z,99.00
2019-03-03T11:37:27.660Z,98.90
2019-03-03T11:41:38.880Z,98.90
2019-03-03T11:45:56.081Z,99.10
2019-03-03T11:50:01.306Z,99.50
2019-03-03T11:54:09.615Z,99.10
2019-03-03T11:58:17.982Z,99.10
2019-03-03T12:02:23.551Z,99.50
2019-03-03T12:06:34.227Z,99.30
2019-03-03T12:10:45.296Z,99.20
2019-03-03T12:15:02.775Z,99.40
2019-03-03T12:19:17.100Z,99.00
2019-03-03T12:23:28.416Z,99.00
2019-03-03T12:27:42.750Z,99.40
2019-03-03T12:31:53.971Z,99.40
2019-03-03T12:35:59.211Z,99.20
2019-03-03T12:40:07.012Z,99.10
2019-03-03T12:44:17.717Z,99.60
2019-03-03T12:48:39.471Z,99.40
2019-03-03T12:52:50.483Z,99.00
2019-03-03T12:57:12.083Z,99.50
2019-03-03T13:01:19.864Z,99.50
2019-03-03T13:05:25.189Z,99.90
2019-03-03T13:09:39.727Z,99.20
2019-03-03T13:14:10.013Z,99.80
2019-03-03T13:18:21.211Z,99.40
2019-03-03T13:22:26.521Z,99.80
2019-03-03T13:26:31.766Z,99.80
2019-03-03T13:30:37.085Z,99.70
2019-03-03T13:34:42.352Z,99.50
2019-03-03T13:38:56.571Z,99.60
2019-03-03T13:43:00.178Z,99.80
2019-03-03T13:47:03.781Z,99.90
2019-03-03T13:51:07.472Z,99.70
2019-03-03T13:55:12.510Z,99.90
2019-03-03T13:59:16.100Z,99.90
2019-03-03T14:03:19.756Z,99.90
2019-03-03T14:07:23.383Z,99.90
2019-03-03T14:11:30.907Z,99.90
2019-03-03T14:15:34.587Z,99.90
2019-03-03T14:19:38.197Z,99.60
2019-03-03T14:23:41.908Z,99.70
2019-03-03T14:27:45.604Z,99.90
2019-03-03T14:31:49.216Z,99.50
2019-03-03T14:35:52.841Z,99.20
2019-03-03T14:39:56.464Z,99.20
2019-03-03T14:44:00.035Z,99.40
2019-03-03T14:48:03.649Z,99.50
2019-03-03T14:52:07.335Z,99.60
2019-03-03T14:56:10.943Z,99.20
2019-03-03T15:00:24.349Z,99.40
2019-03-03T15:04:28.942Z,99.50
2019-03-03T15:08:32.598Z,99.50
2019-03-03T15:12:36.220Z,99.60
2019-03-03T15:16:39.928Z,99.60
2019-03-03T15:20:43.696Z,99.90
2019-03-03T15:24:47.277Z,99.80
2019-03-03T15:28:50.884Z,99.70
2019-03-03T15:32:54.648Z,99.70
2019-03-03T15:36:58.372Z,99.70
2019-03-03T15:41:02.041Z,99.80
2019-03-03T15:45:08.697Z,99.90
2019-03-03T15:49:12.404Z,99.90
2019-03-03T15:53:16.016Z,99.60
2019-03-03T15:57:19.643Z,99.20
2019-03-03T16:01:23.331Z,99.70
2019-03-03T16:05:26.988Z,99.50
2019-03-03T16:09:30.889Z,99.70
2019-03-03T16:13:34.579Z,99.70
2019-03-03T16:17:38.180Z,99.40
2019-03-03T16:21:41.785Z,99.70
2019-03-03T16:25:45.368Z,99.60
2019-03-03T16:29:48.970Z,99.50
2019-03-03T16:33:52.579Z,99.50
2019-03-03T16:37:56.538Z,99.20
2019-03-03T16:42:00.112Z,99.20
2019-03-03T16:46:03.697Z,99.10
2019-03-03T16:50:10.208Z,98.90
2019-03-03T16:54:13.816Z,98.70
2019-03-03T16:58:17.425Z,98.80
2019-03-03T17:02:21.120Z,98.70
2019-03-03T17:06:24.704Z,98.40
2019-03-03T17:10:28.378Z,98.80
2019-03-03T17:14:32.005Z,98.80
2019-03-03T17:18:35.604Z,99.20
2019-03-03T17:22:39.292Z,98.80
2019-03-03T17:26:42.896Z,99.00
2019-03-03T17:30:46.491Z,98.90
2019-03-03T17:34:50.131Z,99.00
2019-03-03T17:38:53.724Z,99.00
2019-03-03T17:42:57.332Z,98.80
2019-03-03T17:47:00.927Z,99.20
2019-03-03T17:51:04.545Z,99.10
2019-03-03T17:55:09.596Z,98.80
2019-03-03T17:59:13.383Z,98.90
2019-03-03T18:03:16.990Z,98.80
2019-03-03T18:07:20.602Z,98.60
2019-03-03T18:11:24.204Z,98.70
2019-03-03T18:15:27.805Z,98.40
2019-03-03T18:19:31.600Z,98.40
2019-03-03T18:23:35.191Z,98.70
2019-03-03T18:27:38.913Z,98.60
2019-03-03T18:31:42.530Z,98.60
2019-03-03T18:35:46.260Z,98.40
2019-03-03T18:39:50.129Z,98.40
2019-03-03T18:43:53.736Z,98.60
2019-03-03T18:47:57.388Z,98.30
2019-03-03T18:52:00.982Z,98.70
2019-03-03T18:56:04.613Z,98.80
2019-03-03T19:00:13.794Z,99.10
2019-03-03T19:04:17.384Z,99.20
2019-03-03T19:08:20.967Z,99.00
2019-03-03T19:12:24.572Z,98.40
2019-03-03T19:16:28.177Z,98.60
2019-03-03T19:20:31.861Z,98.30
2019-03-03T19:24:35.468Z,98.80
2019-03-03T19:28:40.321Z,99.10
2019-03-03T19:32:44.554Z,99.50
2019-03-03T19:36:48.722Z,99.80
2019-03-03T19:40:52.408Z,99.70
2019-03-03T19:44:56.535Z,99.90
2019-03-03T19:49:00.554Z,99.80
2019-03-03T19:53:05.439Z,99.60
2019-03-03T19:57:09.774Z,99.20
2019-03-03T20:01:14.143Z,99.20
2019-03-03T20:05:18.623Z,98.90
2019-03-03T20:09:22.648Z,99.20
2019-03-03T20:13:27.101Z,98.70
2019-03-03T20:17:31.561Z,98.80
2019-03-03T20:21:36.099Z,98.60
2019-03-03T20:25:40.699Z,98.80
2019-03-03T20:29:45.947Z,98.50
2019-03-03T20:33:51.206Z,98.70
2019-03-03T20:37:56.789Z,98.20
2019-03-03T20:42:01.071Z,98.80
2019-03-03T20:46:05.911Z,98.40
2019-03-03T20:50:13.570Z,98.30
2019-03-03T20:54:17.869Z,97.90
2019-03-03T20:58:21.655Z,97.90
2019-03-03T21:02:25.395Z,98.00
2019-03-03T21:06:29.007Z,97.70
2019-03-03T21:10:34.360Z,98.00
2019-03-03T21:14:38.534Z,97.80
2019-03-03T21:18:42.367Z,98.00
2019-03-03T21:22:46.052Z,97.80
2019-03-03T21:26:49.668Z,97.70
2019-03-03T21:30:53.457Z,97.40
2019-03-03T21:34:57.037Z,97.60
2019-03-03T21:39:00.649Z,97.70
2019-03-03T21:43:04.636Z,97.50
2019-03-03T21:47:08.241Z,97.40
2019-03-03T21:51:11.852Z,97.20
2019-03-03T21:55:15.724Z,97.10
2019-03-03T21:59:19.380Z,96.50
2019-03-03T22:03:22.986Z,96.40
2019-03-03T22:07:26.595Z,96.20
2019-03-03T22:11:30.203Z,95.70
2019-03-03T22:15:33.781Z,96.20
2019-03-03T22:19:37.408Z,95.50
2019-03-03T22:23:41.032Z,95.70
2019-03-03T22:27:44.647Z,95.60
2019-03-03T22:31:48.251Z,95.40
2019-03-03T22:35:51.832Z,95.40
2019-03-03T22:39:55.439Z,95.30
2019-03-03T22:43:59.079Z,95.30
2019-03-03T22:48:02.688Z,94.90
2019-03-03T22:52:06.287Z,95.00
2019-03-03T22:56:09.886Z,94.90
2019-03-03T23:00:27.467Z,94.60
2019-03-03T23:04:46.264Z,94.30
2019-03-03T23:09:01.519Z,94.30
2019-03-03T23:13:14.208Z,95.30
2019-03-03T23:17:20.869Z,94.70
2019-03-03T23:21:39.576Z,95.30
2019-03-03T23:26:16.607Z,95.10
2019-03-03T23:30:15.428Z,95.20
2019-03-03T23:34:19.036Z,95.40
2019-03-03T23:38:22.673Z,95.10
2019-03-03T23:42:26.332Z,95.00
2019-03-03T23:46:30.017Z,94.80
2019-03-03T23:50:33.625Z,94.70
2019-03-03T23:54:37.252Z,95.10
2019-03-03T23:58:40.860Z,95.10
